Time;durP1;ratioP1;P1;durP2;ratioP2;P2;SDS_P1;SDS_P2;PMS_P1;PMS_P2;Temp;Humidity;BMP_temperature;BMP_pressure;BME280_temperature;BME280_humidity;BME280_pressure;Samples;Min_cycle;Max_cycle;Signal;HPM_P1;HPM_P2
2021/08/18 00:01:55;;;;;;;11.13;7.65;;;;;;;;;;4997786;28;20099;-74
2021/08/18 00:04:21;;;;;;;15.55;8.25;;;;;;;;;;4997068;28;20520;-74
2021/08/18 00:06:48;;;;;;;12.73;7.30;;;;;;;;;;4997633;28;20125;-74
2021/08/18 00:09:14;;;;;;;14.38;9.50;;;;;;;;;;4997404;28;20073;-74
2021/08/18 00:11:40;;;;;;;16.02;9.35;;;;;;;;;;4997291;28;20046;-74
2021/08/18 00:14:06;;;;;;;10.32;6.30;;;;;;;;;;4997786;28;20044;-74
2021/08/18 00:16:32;;;;;;;10.30;6.82;;;;;;;;;;4996928;28;20126;-74
2021/08/18 00:18:58;;;;;;;10.98;7.82;;;;;;;;;;4997105;28;20053;-74
2021/08/18 00:21:25;;;;;;;13.57;7.32;;;;;;;;;;4997129;28;20046;-74
2021/08/18 00:23:51;;;;;;;10.85;7.13;;;;;;;;;;4996994;28;20047;-74
2021/08/18 00:26:18;;;;;;;13.05;8.02;;;;;;;;;;4997561;28;20046;-74
2021/08/18 00:28:44;;;;;;;10.98;7.40;;;;;;;;;;4996857;28;20130;-74
2021/08/18 00:31:13;;;;;;;9.55;6.22;;;;;;;;;;4996623;28;20493;-74
2021/08/18 00:33:39;;;;;;;12.98;6.85;;;;;;;;;;4996894;28;20050;-73
2021/08/18 00:36:06;;;;;;;15.70;10.35;;;;;;;;;;4996863;28;20066;-74
2021/08/18 00:38:32;;;;;;;10.85;6.80;;;;;;;;;;4996541;28;20042;-74
2021/08/18 00:40:58;;;;;;;9.93;7.28;;;;;;;;;;4996820;28;20582;-74
2021/08/18 00:43:24;;;;;;;10.77;6.75;;;;;;;;;;4996579;28;20042;-74
2021/08/18 00:45:51;;;;;;;9.70;6.30;;;;;;;;;;4996236;28;20644;-74
2021/08/18 00:48:17;;;;;;;13.15;7.60;;;;;;;;;;4996573;28;20050;-74
2021/08/18 00:50:43;;;;;;;11.50;6.82;;;;;;;;;;4996275;28;20074;-74
2021/08/18 00:53:10;;;;;;;10.60;6.97;;;;;;;;;;4996770;28;20042;-74
2021/08/18 00:55:36;;;;;;;11.05;6.95;;;;;;;;;;4996375;28;20500;-74
2021/08/18 00:58:02;;;;;;;9.75;6.57;;;;;;;;;;4996179;28;20583;-74
2021/08/18 01:00:28;;;;;;;9.70;6.45;;;;;;;;;;4996250;28;20042;-74
2021/08/18 01:02:57;;;;;;;9.00;6.88;;;;;;;;;;4996374;28;20068;-74
2021/08/18 01:05:25;;;;;;;10.32;6.70;;;;;;;;;;4996503;28;20042;-74
2021/08/18 01:07:51;;;;;;;13.40;7.43;;;;;;;;;;4995809;28;20038;-74
2021/08/18 01:10:20;;;;;;;10.85;6.80;;;;;;;;;;4996152;28;20054;-74
2021/08/18 01:12:46;;;;;;;13.52;8.02;;;;;;;;;;4996162;28;20096;-74
2021/08/18 01:15:14;;;;;;;10.27;6.97;;;;;;;;;;4996103;28;20069;-74
2021/08/18 01:17:41;;;;;;;9.85;6.80;;;;;;;;;;4996099;28;20054;-74
2021/08/18 01:20:08;;;;;;;9.98;6.80;;;;;;;;;;4996003;28;20068;-74
2021/08/18 01:22:34;;;;;;;10.18;7.20;;;;;;;;;;4996258;28;20046;-74
2021/08/18 01:25:02;;;;;;;13.32;7.22;;;;;;;;;;4996265;28;20042;-74
2021/08/18 01:27:29;;;;;;;12.75;7.20;;;;;;;;;;4995890;28;20085;-74
2021/08/18 01:29:56;;;;;;;11.88;6.65;;;;;;;;;;4995799;28;20046;-74
2021/08/18 01:32:22;;;;;;;10.15;6.88;;;;;;;;;;4995790;28;20121;-74
2021/08/18 01:34:48;;;;;;;11.30;7.18;;;;;;;;;;4995927;28;20050;-74
2021/08/18 01:37:14;;;;;;;10.00;6.78;;;;;;;;;;4995458;28;20038;-74
2021/08/18 01:39:40;;;;;;;10.35;7.15;;;;;;;;;;4995820;28;20203;-74
2021/08/18 01:42:07;;;;;;;9.68;6.47;;;;;;;;;;4995666;28;20125;-74
2021/08/18 01:44:33;;;;;;;11.30;6.72;;;;;;;;;;4995720;28;20108;-74
2021/08/18 01:46:59;;;;;;;9.02;6.40;;;;;;;;;;4995722;28;20037;-74
2021/08/18 01:49:26;;;;;;;11.25;6.90;;;;;;;;;;4995749;28;20034;-74
2021/08/18 01:51:52;;;;;;;11.15;5.72;;;;;;;;;;4995553;28;20042;-74
2021/08/18 01:54:19;;;;;;;13.18;6.35;;;;;;;;;;4996233;28;20047;-74
2021/08/18 01:56:45;;;;;;;11.43;6.07;;;;;;;;;;4995726;28;20497;-76
2021/08/18 01:59:11;;;;;;;8.55;5.75;;;;;;;;;;4995542;28;20567;-77
2021/08/18 02:01:37;;;;;;;7.78;5.57;;;;;;;;;;4995647;28;20041;-77
2021/08/18 02:04:03;;;;;;;10.25;6.28;;;;;;;;;;4996181;28;20507;-77
2021/08/18 02:06:32;;;;;;;6.38;5.35;;;;;;;;;;4995838;28;20111;-77
2021/08/18 02:08:58;;;;;;;7.53;5.50;;;;;;;;;;4995555;28;20077;-77
2021/08/18 02:11:24;;;;;;;8.65;6.40;;;;;;;;;;4995556;28;20093;-76
2021/08/18 02:13:51;;;;;;;7.80;5.70;;;;;;;;;;4995355;28;20050;-77
2021/08/18 02:16:17;;;;;;;10.82;6.20;;;;;;;;;;4995493;28;20516;-76
2021/08/18 02:18:43;;;;;;;12.30;5.95;;;;;;;;;;4993840;28;20129;-77
2021/08/18 02:21:09;;;;;;;9.50;5.88;;;;;;;;;;4995150;28;20485;-77
2021/08/18 02:23:35;;;;;;;11.70;5.78;;;;;;;;;;4995406;28;20052;-77
2021/08/18 02:26:01;;;;;;;7.47;5.65;;;;;;;;;;4995555;28;20113;-77
2021/08/18 02:28:27;;;;;;;10.13;5.70;;;;;;;;;;4995429;28;20133;-77
2021/08/18 02:30:53;;;;;;;8.68;5.90;;;;;;;;;;4994991;28;20042;-77
2021/08/18 02:33:24;;;;;;;7.25;5.38;;;;;;;;;;4995554;28;20042;-75
2021/08/18 02:35:50;;;;;;;;;;;;;;;;;;4995895;28;20042;-75
2021/08/18 02:38:16;;;;;;;8.80;5.35;;;;;;;;;;4995200;28;19910;-77
2021/08/18 02:40:43;;;;;;;9.63;5.78;;;;;;;;;;4995335;28;20042;-78
2021/08/18 02:43:09;;;;;;;13.05;5.90;;;;;;;;;;4995283;28;20042;-77
2021/08/18 02:45:35;;;;;;;12.48;6.10;;;;;;;;;;4995013;28;20062;-77
2021/08/18 02:48:02;;;;;;;11.15;6.38;;;;;;;;;;4993871;28;20385;-75
2021/08/18 02:50:29;;;;;;;9.18;5.80;;;;;;;;;;4994511;28;20046;-74
2021/08/18 02:52:56;;;;;;;9.10;5.82;;;;;;;;;;4994592;28;20433;-74
2021/08/18 02:55:22;;;;;;;7.63;5.85;;;;;;;;;;4994916;28;20100;-74
2021/08/18 02:57:48;;;;;;;7.75;4.97;;;;;;;;;;4994821;28;20038;-74
2021/08/18 03:00:15;;;;;;;11.10;6.03;;;;;;;;;;4994348;28;20042;-74
2021/08/18 03:02:41;;;;;;;8.00;5.75;;;;;;;;;;4994799;28;20038;-74
2021/08/18 03:05:08;;;;;;;9.65;5.72;;;;;;;;;;4994442;28;20567;-73
2021/08/18 03:07:34;;;;;;;10.40;5.70;;;;;;;;;;4993502;28;20057;-73
2021/08/18 03:10:00;;;;;;;8.75;5.93;;;;;;;;;;4994348;28;20046;-74
2021/08/18 03:12:27;;;;;;;11.10;6.47;;;;;;;;;;4995252;28;20050;-74
2021/08/18 03:14:53;;;;;;;10.85;5.28;;;;;;;;;;4994396;28;20046;-74
2021/08/18 03:17:19;;;;;;;10.13;5.95;;;;;;;;;;4994714;28;20112;-73
2021/08/18 03:19:45;;;;;;;10.43;5.45;;;;;;;;;;4994628;28;20068;-74
2021/08/18 03:22:11;;;;;;;7.13;5.47;;;;;;;;;;4995165;28;20485;-74
2021/08/18 03:24:37;;;;;;;7.22;4.90;;;;;;;;;;4994952;28;20046;-74
2021/08/18 03:27:04;;;;;;;9.88;5.63;;;;;;;;;;4994596;28;20042;-74
2021/08/18 03:29:30;;;;;;;8.95;5.55;;;;;;;;;;4994023;28;20513;-74
2021/08/18 03:31:56;;;;;;;9.27;6.10;;;;;;;;;;4997059;28;20042;-74
2021/08/18 03:34:22;;;;;;;9.60;5.80;;;;;;;;;;4997887;28;20543;-74
2021/08/18 03:36:48;;;;;;;11.35;5.78;;;;;;;;;;4997977;28;20042;-73
2021/08/18 03:39:14;;;;;;;11.27;5.60;;;;;;;;;;4997945;28;20049;-73
2021/08/18 03:41:40;;;;;;;11.45;5.70;;;;;;;;;;4998013;28;20046;-73
2021/08/18 03:44:07;;;;;;;10.20;5.95;;;;;;;;;;4997413;28;20460;-74
2021/08/18 03:46:33;;;;;;;10.10;5.47;;;;;;;;;;4998188;28;20076;-74
2021/08/18 03:49:00;;;;;;;11.18;5.85;;;;;;;;;;4998226;28;20124;-74
2021/08/18 03:51:26;;;;;;;10.63;5.85;;;;;;;;;;4997952;28;20132;-74
2021/08/18 03:53:52;;;;;;;10.27;5.82;;;;;;;;;;4998210;28;20050;-73
2021/08/18 03:56:18;;;;;;;7.60;5.20;;;;;;;;;;4998168;28;20481;-74
2021/08/18 03:58:44;;;;;;;9.57;5.18;;;;;;;;;;4997700;28;20042;-74
2021/08/18 04:01:11;;;;;;;10.38;6.25;;;;;;;;;;4997568;28;20046;-74
2021/08/18 04:03:37;;;;;;;11.57;6.03;;;;;;;;;;4997487;28;20096;-74
2021/08/18 04:06:03;;;;;;;9.13;5.40;;;;;;;;;;4998037;28;20489;-74
2021/08/18 04:08:30;;;;;;;9.23;5.70;;;;;;;;;;4997700;28;20133;-74
2021/08/18 04:10:56;;;;;;;9.88;5.60;;;;;;;;;;4997575;28;20038;-74
2021/08/18 04:13:22;;;;;;;11.07;5.90;;;;;;;;;;4998129;28;20193;-74
2021/08/18 04:15:48;;;;;;;8.75;5.43;;;;;;;;;;4997500;28;20417;-74
2021/08/18 04:18:14;;;;;;;9.80;5.43;;;;;;;;;;4996500;28;20577;-74
2021/08/18 04:20:41;;;;;;;10.80;6.55;;;;;;;;;;4997227;28;20185;-74
2021/08/18 04:23:07;;;;;;;10.68;5.63;;;;;;;;;;4997882;28;20635;-74
2021/08/18 04:25:34;;;;;;;8.85;5.65;;;;;;;;;;4997573;28;20596;-74
2021/08/18 04:28:00;;;;;;;9.98;5.78;;;;;;;;;;4997366;28;20476;-74
2021/08/18 04:30:26;;;;;;;9.98;5.88;;;;;;;;;;4996833;28;20042;-74
2021/08/18 04:32:52;;;;;;;9.75;5.47;;;;;;;;;;4997349;28;20101;-74
2021/08/18 04:35:19;;;;;;;7.63;5.18;;;;;;;;;;4997157;28;20069;-74
2021/08/18 04:37:46;;;;;;;9.73;5.60;;;;;;;;;;4996880;28;20049;-73
2021/08/18 04:40:12;;;;;;;8.57;5.75;;;;;;;;;;4997204;28;20050;-74
2021/08/18 04:42:40;;;;;;;8.20;5.55;;;;;;;;;;4996758;28;20046;-74
2021/08/18 04:45:07;;;;;;;12.90;5.80;;;;;;;;;;4996433;28;20077;-74
2021/08/18 04:47:33;;;;;;;8.25;5.57;;;;;;;;;;4996718;28;20065;-74
2021/08/18 04:49:59;;;;;;;8.55;5.15;;;;;;;;;;4996254;28;20528;-74
2021/08/18 04:52:26;;;;;;;10.48;5.82;;;;;;;;;;4996611;28;20143;-74
2021/08/18 04:54:52;;;;;;;9.68;5.20;;;;;;;;;;4996683;28;20050;-74
2021/08/18 04:57:18;;;;;;;8.13;5.70;;;;;;;;;;4996198;28;20086;-74
2021/08/18 04:59:45;;;;;;;7.60;6.03;;;;;;;;;;4996314;28;20161;-74
2021/08/18 05:02:11;;;;;;;12.02;5.78;;;;;;;;;;4996119;28;20042;-73
2021/08/18 05:04:37;;;;;;;10.15;5.63;;;;;;;;;;4996445;28;20057;-73
2021/08/18 05:07:03;;;;;;;8.90;5.70;;;;;;;;;;4996303;28;20121;-73
2021/08/18 05:09:29;;;;;;;12.18;6.03;;;;;;;;;;4996535;28;20038;-74
2021/08/18 05:11:56;;;;;;;7.70;5.60;;;;;;;;;;4996752;28;20042;-73
2021/08/18 05:14:23;;;;;;;9.88;5.55;;;;;;;;;;4996405;28;20073;-73
2021/08/18 05:16:49;;;;;;;10.82;5.97;;;;;;;;;;4996380;28;20042;-74
2021/08/18 05:19:15;;;;;;;9.70;5.55;;;;;;;;;;4996055;28;20038;-74
2021/08/18 05:21:42;;;;;;;9.75;5.85;;;;;;;;;;4996036;28;20038;-73
2021/08/18 05:24:08;;;;;;;10.20;5.38;;;;;;;;;;4995444;28;20100;-73
2021/08/18 05:26:34;;;;;;;8.80;5.45;;;;;;;;;;4995948;28;20044;-74
2021/08/18 05:29:00;;;;;;;8.32;5.78;;;;;;;;;;4995734;28;20045;-74
2021/08/18 05:31:27;;;;;;;10.57;5.72;;;;;;;;;;4995804;28;20089;-74
2021/08/18 05:33:53;;;;;;;8.50;4.95;;;;;;;;;;4988397;28;20055;-73
2021/08/18 05:36:19;;;;;;;10.93;6.05;;;;;;;;;;4969284;28;20095;-74
2021/08/18 05:38:46;;;;;;;9.38;5.28;;;;;;;;;;4966790;28;20066;-75
2021/08/18 05:41:13;;;;;;;8.98;5.57;;;;;;;;;;4963927;28;20043;-74
2021/08/18 05:43:39;;;;;;;8.80;5.35;;;;;;;;;;4974285;28;20524;-74
2021/08/18 05:46:06;;;;;;;10.07;5.47;;;;;;;;;;4993599;28;20054;-73
2021/08/18 05:48:32;;;;;;;7.72;5.30;;;;;;;;;;4995157;28;20038;-73
2021/08/18 05:50:58;;;;;;;8.82;4.72;;;;;;;;;;4995444;28;20058;-73
2021/08/18 05:53:25;;;;;;;9.48;5.20;;;;;;;;;;4993872;28;20121;-73
2021/08/18 05:55:51;;;;;;;8.73;5.32;;;;;;;;;;4995521;28;20046;-73
2021/08/18 05:58:17;;;;;;;7.28;5.32;;;;;;;;;;4994777;28;20034;-72
2021/08/18 06:00:44;;;;;;;8.57;5.45;;;;;;;;;;4994579;28;20120;-72
2021/08/18 06:03:11;;;;;;;8.18;5.50;;;;;;;;;;4995068;28;20034;-72
2021/08/18 06:05:37;;;;;;;10.55;5.18;;;;;;;;;;4995438;28;20053;-72
2021/08/18 06:08:06;;;;;;;6.93;5.18;;;;;;;;;;4995021;28;20568;-72
2021/08/18 06:10:33;;;;;;;7.38;4.90;;;;;;;;;;4995201;28;20050;-72
2021/08/18 06:13:01;;;;;;;6.38;4.82;;;;;;;;;;4994964;28;20069;-72
2021/08/18 06:15:32;;;;;;;7.72;4.95;;;;;;;;;;4995166;28;20090;-73
2021/08/18 06:17:58;;;;;;;7.70;5.00;;;;;;;;;;4995510;28;20105;-72
2021/08/18 06:20:24;;;;;;;8.30;5.03;;;;;;;;;;4993367;28;20640;-72
2021/08/18 06:22:50;;;;;;;6.28;5.00;;;;;;;;;;4979926;28;20046;-72
2021/08/18 06:25:17;;;;;;;6.63;5.05;;;;;;;;;;4992501;28;20042;-72
2021/08/18 06:27:43;;;;;;;11.23;5.20;;;;;;;;;;4982032;28;20180;-72
2021/08/18 06:30:10;;;;;;;7.53;5.35;;;;;;;;;;4989681;28;20042;-72
2021/08/18 06:32:36;;;;;;;7.45;5.25;;;;;;;;;;4993757;28;20524;-72
2021/08/18 06:35:03;;;;;;;7.25;5.03;;;;;;;;;;4989691;28;20120;-73
2021/08/18 06:37:29;;;;;;;6.70;4.97;;;;;;;;;;4991663;28;20124;-72
2021/08/18 06:39:55;;;;;;;9.80;5.20;;;;;;;;;;4990726;28;20124;-72
2021/08/18 06:42:22;;;;;;;7.80;5.22;;;;;;;;;;4990599;28;20038;-74
2021/08/18 06:44:51;;;;;;;8.07;5.05;;;;;;;;;;4992167;28;20054;-72
2021/08/18 06:47:17;;;;;;;6.45;4.90;;;;;;;;;;4994713;28;20062;-72
2021/08/18 06:49:44;;;;;;;9.75;5.07;;;;;;;;;;4994483;28;20105;-72
2021/08/18 06:52:11;;;;;;;5.45;4.65;;;;;;;;;;4991974;28;20038;-72
2021/08/18 06:54:37;;;;;;;7.60;5.05;;;;;;;;;;4993846;28;20058;-72
2021/08/18 06:57:03;;;;;;;7.65;4.55;;;;;;;;;;4994396;28;20039;-72
2021/08/18 06:59:29;;;;;;;8.25;4.88;;;;;;;;;;4994473;28;20129;-72
2021/08/18 07:01:56;;;;;;;12.25;5.03;;;;;;;;;;4994477;28;20046;-72
2021/08/18 07:04:22;;;;;;;8.80;4.60;;;;;;;;;;4994841;28;20047;-72
2021/08/18 07:06:48;;;;;;;7.32;4.95;;;;;;;;;;4998451;28;20073;-72
2021/08/18 07:09:14;;;;;;;9.88;5.18;;;;;;;;;;4998137;28;20046;-72
2021/08/18 07:11:41;;;;;;;7.10;4.80;;;;;;;;;;4995077;28;20050;-72
2021/08/18 07:14:07;;;;;;;7.10;5.10;;;;;;;;;;4998220;28;20050;-73
2021/08/18 07:16:34;;;;;;;9.13;5.50;;;;;;;;;;4998250;28;20030;-73
2021/08/18 07:19:00;;;;;;;8.95;5.13;;;;;;;;;;4997386;28;20058;-73
2021/08/18 07:21:27;;;;;;;9.57;5.55;;;;;;;;;;4995625;28;20385;-72
2021/08/18 07:23:53;;;;;;;8.90;4.97;;;;;;;;;;4997224;28;20109;-72
2021/08/18 07:26:21;;;;;;;8.38;4.75;;;;;;;;;;4997540;28;20039;-72
2021/08/18 07:28:48;;;;;;;7.10;4.95;;;;;;;;;;4998473;28;20057;-72
2021/08/18 07:31:14;;;;;;;7.10;4.78;;;;;;;;;;4998372;28;20563;-72
2021/08/18 07:33:40;;;;;;;6.18;4.70;;;;;;;;;;4998336;28;20052;-72
2021/08/18 07:36:07;;;;;;;11.68;5.00;;;;;;;;;;4998071;28;20097;-72
2021/08/18 07:38:33;;;;;;;10.98;5.35;;;;;;;;;;4998252;28;20129;-71
2021/08/18 07:40:59;;;;;;;7.00;4.63;;;;;;;;;;4998163;28;20125;-71
2021/08/18 07:43:25;;;;;;;9.48;5.35;;;;;;;;;;4998130;28;20099;-71
2021/08/18 07:45:51;;;;;;;8.20;5.05;;;;;;;;;;5009719;28;20566;-72
2021/08/18 07:48:18;;;;;;;7.10;4.75;;;;;;;;;;5016123;28;20061;-72
2021/08/18 07:50:44;;;;;;;9.65;4.80;;;;;;;;;;5015980;28;20412;-75
2021/08/18 07:53:10;;;;;;;8.48;5.15;;;;;;;;;;5016041;28;20129;-77
2021/08/18 07:55:36;;;;;;;8.20;4.95;;;;;;;;;;5016417;28;20555;-76
2021/08/18 07:58:02;;;;;;;7.10;5.28;;;;;;;;;;5016611;28;20034;-76
2021/08/18 08:00:28;;;;;;;10.02;5.70;;;;;;;;;;5016967;28;20050;-77
2021/08/18 08:02:54;;;;;;;9.23;5.32;;;;;;;;;;5017428;28;20045;-77
2021/08/18 08:05:21;;;;;;;10.05;5.07;;;;;;;;;;5017053;28;20128;-78
2021/08/18 08:07:47;;;;;;;10.05;5.10;;;;;;;;;;5017128;28;20038;-79
2021/08/18 08:10:13;;;;;;;7.35;5.03;;;;;;;;;;5016842;28;20104;-78
2021/08/18 08:12:39;;;;;;;7.20;4.60;;;;;;;;;;5016679;28;20129;-79
2021/08/18 08:15:06;;;;;;;9.52;4.78;;;;;;;;;;5016808;28;20053;-78
2021/08/18 08:17:33;;;;;;;8.48;5.20;;;;;;;;;;5016355;28;20149;-78
2021/08/18 08:19:59;;;;;;;11.60;5.10;;;;;;;;;;5017083;28;20058;-78
2021/08/18 08:22:25;;;;;;;8.95;5.13;;;;;;;;;;5015741;28;20480;-78
2021/08/18 08:24:51;;;;;;;7.80;5.05;;;;;;;;;;5015561;28;20050;-78
2021/08/18 08:27:20;;;;;;;10.43;5.15;;;;;;;;;;5015750;28;20045;-78
2021/08/18 08:29:46;;;;;;;8.68;5.18;;;;;;;;;;5015486;28;20127;-78
2021/08/18 08:32:12;;;;;;;10.25;4.70;;;;;;;;;;5016815;28;20518;-78
2021/08/18 08:34:39;;;;;;;9.70;5.07;;;;;;;;;;5014558;28;20172;-77
2021/08/18 08:37:05;;;;;;;8.10;5.05;;;;;;;;;;5014047;28;20070;-79
2021/08/18 08:39:31;;;;;;;11.68;5.60;;;;;;;;;;5014738;28;20551;-79
2021/08/18 08:41:57;;;;;;;10.85;5.20;;;;;;;;;;4991463;28;20034;-79
2021/08/18 08:44:25;;;;;;;10.68;5.47;;;;;;;;;;5007924;28;20065;-79
2021/08/18 08:46:52;;;;;;;9.52;5.22;;;;;;;;;;4986848;28;20061;-78
2021/08/18 08:49:19;;;;;;;10.23;5.18;;;;;;;;;;4994168;28;20050;-79
2021/08/18 08:51:45;;;;;;;10.55;5.45;;;;;;;;;;4994739;28;20042;-76
2021/08/18 08:54:12;;;;;;;10.80;5.13;;;;;;;;;;4995002;28;20089;-78
2021/08/18 08:56:47;;;;;;;6.15;4.43;;;;;;;;;;4996021;28;20034;-78
2021/08/18 08:59:13;;;;;;;7.40;5.10;;;;;;;;;;4994481;28;20046;-78
2021/08/18 09:02:00;;;;;;;8.27;5.13;;;;;;;;;;4993031;28;20074;-77
2021/08/18 09:04:27;;;;;;;7.20;4.43;;;;;;;;;;4994758;28;20045;-77
2021/08/18 09:07:16;;;;;;;6.72;4.70;;;;;;;;;;4995277;28;20042;-77
2021/08/18 09:09:50;;;;;;;6.88;4.15;;;;;;;;;;4993569;28;20046;-77
2021/08/18 09:12:17;;;;;;;7.32;5.18;;;;;;;;;;4995451;28;20061;-77
2021/08/18 09:14:43;;;;;;;6.47;5.00;;;;;;;;;;4990078;28;20492;-73
2021/08/18 09:17:30;;;;;;;7.32;5.25;;;;;;;;;;5014120;28;20065;-75
2021/08/18 09:19:58;;;;;;;10.10;6.00;;;;;;;;;;5015226;28;20046;-75
2021/08/18 09:22:24;;;;;;;8.45;5.25;;;;;;;;;;5014925;28;20488;-74
2021/08/18 09:24:51;;;;;;;8.05;4.70;;;;;;;;;;5015430;28;20125;-74
2021/08/18 09:27:24;;;;;;;7.38;4.68;;;;;;;;;;5013442;28;20045;-75
2021/08/18 09:29:51;;;;;;;9.40;5.30;;;;;;;;;;5013653;28;20547;-74
2021/08/18 09:32:18;;;;;;;8.70;4.97;;;;;;;;;;5014804;28;20042;-76
2021/08/18 09:34:52;;;;;;;10.82;4.53;;;;;;;;;;5014654;28;20103;-77
2021/08/18 09:37:18;;;;;;;8.90;4.60;;;;;;;;;;5014764;28;20099;-74
2021/08/18 09:39:44;;;;;;;6.78;4.78;;;;;;;;;;5013255;28;20111;-75
2021/08/18 09:42:30;;;;;;;8.90;4.97;;;;;;;;;;5014940;28;20484;-74
2021/08/18 09:45:17;;;;;;;7.13;4.88;;;;;;;;;;5014820;28;20137;-74
2021/08/18 09:47:52;;;;;;;7.30;5.13;;;;;;;;;;5015062;28;20073;-74
2021/08/18 09:50:18;;;;;;;8.43;4.75;;;;;;;;;;5014579;28;20056;-74
2021/08/18 09:52:45;;;;;;;6.55;4.55;;;;;;;;;;5015036;28;20041;-74
2021/08/18 09:55:12;;;;;;;10.30;5.28;;;;;;;;;;5014569;28;20050;-74
2021/08/18 09:57:38;;;;;;;6.60;5.22;;;;;;;;;;5013584;28;20392;-74
2021/08/18 10:00:04;;;;;;;7.55;4.93;;;;;;;;;;5014388;28;20138;-74
2021/08/18 10:02:31;;;;;;;7.07;4.78;;;;;;;;;;5014703;28;20073;-75
2021/08/18 10:05:00;;;;;;;7.97;6.03;;;;;;;;;;5014821;28;20049;-76
2021/08/18 10:07:27;;;;;;;7.53;5.13;;;;;;;;;;5012952;28;20030;-74
2021/08/18 10:09:54;;;;;;;8.07;5.05;;;;;;;;;;5013376;28;20192;-76
2021/08/18 10:12:20;;;;;;;10.48;5.30;;;;;;;;;;5014865;28;20080;-73
2021/08/18 10:14:46;;;;;;;7.35;4.80;;;;;;;;;;5015020;28;20049;-73
2021/08/18 10:17:12;;;;;;;7.40;5.20;;;;;;;;;;5015103;28;20042;-73
2021/08/18 10:19:39;;;;;;;9.05;5.00;;;;;;;;;;5015429;28;20465;-73
2021/08/18 10:22:05;;;;;;;8.13;5.15;;;;;;;;;;5015102;28;20038;-73
2021/08/18 10:24:36;;;;;;;6.15;4.80;;;;;;;;;;5015249;28;20124;-74
2021/08/18 10:27:05;;;;;;;5.63;4.43;;;;;;;;;;5014778;28;20492;-73
2021/08/18 10:29:38;;;;;;;6.07;4.78;;;;;;;;;;5014410;28;20336;-73
2021/08/18 10:32:08;;;;;;;8.10;4.80;;;;;;;;;;5015091;28;20516;-73
2021/08/18 10:34:35;;;;;;;10.45;5.50;;;;;;;;;;5014898;28;20448;-73
2021/08/18 10:37:02;;;;;;;9.95;5.82;;;;;;;;;;5014809;28;20048;-74
2021/08/18 10:39:36;;;;;;;7.25;4.53;;;;;;;;;;5015163;28;20124;-74
2021/08/18 10:42:04;;;;;;;8.02;4.85;;;;;;;;;;5018823;28;20065;-73
2021/08/18 10:44:34;;;;;;;6.75;4.75;;;;;;;;;;5018639;28;20049;-74
2021/08/18 10:47:18;;;;;;;7.95;4.72;;;;;;;;;;5018829;28;20034;-73
2021/08/18 10:49:46;;;;;;;8.50;5.13;;;;;;;;;;5018364;28;20041;-73
2021/08/18 10:52:33;;;;;;;6.30;4.22;;;;;;;;;;5017992;28;20049;-74
2021/08/18 10:55:08;;;;;;;9.55;5.03;;;;;;;;;;5018018;28;20049;-74
2021/08/18 10:57:52;;;;;;;9.15;5.22;;;;;;;;;;5018561;28;20038;-74
2021/08/18 11:00:33;;;;;;;6.47;4.43;;;;;;;;;;5018302;28;20084;-74
2021/08/18 11:03:01;;;;;;;7.15;4.90;;;;;;;;;;5018612;28;20042;-74
2021/08/18 11:05:42;;;;;;;9.02;4.78;;;;;;;;;;5017895;28;20050;-74
2021/08/18 11:08:17;;;;;;;7.28;4.68;;;;;;;;;;5018459;28;20061;-74
2021/08/18 11:11:09;;;;;;;8.38;4.70;;;;;;;;;;5018070;28;20096;-74
2021/08/18 11:13:48;;;;;;;8.40;5.13;;;;;;;;;;5018164;28;20567;-74
2021/08/18 11:16:15;;;;;;;6.38;4.13;;;;;;;;;;5018323;28;20041;-73
2021/08/18 11:18:45;;;;;;;6.93;4.63;;;;;;;;;;5017867;28;20033;-74
2021/08/18 11:21:23;;;;;;;9.40;4.57;;;;;;;;;;5017631;28;20489;-74
2021/08/18 11:23:50;;;;;;;7.18;5.28;;;;;;;;;;5015073;28;20061;-74
2021/08/18 11:26:18;;;;;;;6.47;4.55;;;;;;;;;;5016810;28;20045;-74
2021/08/18 11:28:49;;;;;;;8.40;5.22;;;;;;;;;;5016367;28;20068;-74
2021/08/18 11:31:15;;;;;;;6.90;4.53;;;;;;;;;;5016577;28;20060;-75
2021/08/18 11:33:41;;;;;;;8.95;5.45;;;;;;;;;;5016614;28;20129;-74
2021/08/18 11:36:17;;;;;;;7.82;4.35;;;;;;;;;;5015044;28;20048;-74
2021/08/18 11:38:43;;;;;;;6.03;4.38;;;;;;;;;;5014444;28;20046;-74
2021/08/18 11:41:09;;;;;;;7.15;4.40;;;;;;;;;;5014944;28;20052;-74
2021/08/18 11:43:39;;;;;;;7.57;4.47;;;;;;;;;;4991688;28;20042;-74
2021/08/18 11:46:06;;;;;;;8.52;4.80;;;;;;;;;;4992616;28;20070;-74
2021/08/18 11:48:33;;;;;;;8.45;5.10;;;;;;;;;;4991846;28;20042;-74
2021/08/18 11:51:01;;;;;;;7.88;4.30;;;;;;;;;;4990626;28;20054;-74
2021/08/18 11:53:28;;;;;;;7.80;4.95;;;;;;;;;;4993748;28;20466;-74
2021/08/18 11:55:58;;;;;;;8.25;4.82;;;;;;;;;;4992440;28;20061;-74
2021/08/18 11:58:31;;;;;;;6.05;4.35;;;;;;;;;;4992703;28;20038;-74
2021/08/18 12:00:57;;;;;;;5.55;4.30;;;;;;;;;;4989009;28;20046;-74
2021/08/18 12:03:26;;;;;;;8.50;4.63;;;;;;;;;;4991135;28;20531;-74
2021/08/18 12:06:00;;;;;;;6.40;5.53;;;;;;;;;;4991268;28;20549;-74
2021/08/18 12:08:35;;;;;;;9.48;4.35;;;;;;;;;;4990850;28;20074;-74
2021/08/18 12:11:01;;;;;;;5.97;4.32;;;;;;;;;;4992053;28;20128;-74
2021/08/18 12:13:37;;;;;;;8.10;5.40;;;;;;;;;;4991648;28;20042;-74
2021/08/18 12:16:03;;;;;;;6.65;4.68;;;;;;;;;;4991317;28;20038;-74
2021/08/18 12:18:29;;;;;;;5.65;4.30;;;;;;;;;;4991108;28;20038;-74
2021/08/18 12:20:55;;;;;;;8.90;5.05;;;;;;;;;;4991910;28;20038;-74
2021/08/18 12:23:28;;;;;;;5.43;4.40;;;;;;;;;;4992144;28;20093;-74
2021/08/18 12:25:54;;;;;;;6.55;5.15;;;;;;;;;;4989774;28;20047;-74
2021/08/18 12:28:21;;;;;;;6.93;4.72;;;;;;;;;;4990768;28;20038;-74
2021/08/18 12:31:00;;;;;;;8.13;4.68;;;;;;;;;;4991743;28;20046;-74
2021/08/18 12:33:26;;;;;;;8.27;5.20;;;;;;;;;;4991644;28;20566;-74
2021/08/18 12:36:05;;;;;;;10.45;5.20;;;;;;;;;;4989634;28;20086;-74
2021/08/18 12:38:31;;;;;;;9.13;4.93;;;;;;;;;;4994457;28;20065;-74
2021/08/18 12:41:07;;;;;;;10.00;4.20;;;;;;;;;;4995430;28;20386;-74
2021/08/18 12:43:34;;;;;;;6.85;4.72;;;;;;;;;;4993639;28;20513;-74
2021/08/18 12:46:00;;;;;;;6.90;5.13;;;;;;;;;;4995457;28;20129;-74
2021/08/18 12:48:31;;;;;;;7.82;4.40;;;;;;;;;;4995794;28;20038;-74
2021/08/18 12:51:03;;;;;;;8.02;4.70;;;;;;;;;;4995623;28;20050;-74
2021/08/18 12:53:30;;;;;;;7.97;4.90;;;;;;;;;;4994382;28;20081;-74
2021/08/18 12:55:56;;;;;;;8.30;5.40;;;;;;;;;;4994565;28;20108;-74
2021/08/18 12:58:23;;;;;;;8.20;4.95;;;;;;;;;;4995669;28;20044;-74
2021/08/18 13:00:50;;;;;;;5.97;4.07;;;;;;;;;;4995159;28;20046;-74
2021/08/18 13:03:16;;;;;;;7.10;4.65;;;;;;;;;;4995566;28;20048;-74
2021/08/18 13:05:42;;;;;;;6.38;4.28;;;;;;;;;;4995058;28;20046;-74
2021/08/18 13:08:08;;;;;;;8.23;4.80;;;;;;;;;;4994704;28;20042;-74
2021/08/18 13:10:34;;;;;;;6.72;5.20;;;;;;;;;;4994585;28;20054;-74
2021/08/18 13:13:01;;;;;;;8.50;4.50;;;;;;;;;;4994676;28;20034;-74
2021/08/18 13:15:27;;;;;;;6.03;4.63;;;;;;;;;;4994479;28;20046;-74
2021/08/18 13:17:54;;;;;;;9.50;4.45;;;;;;;;;;4994274;28;20092;-74
2021/08/18 13:20:20;;;;;;;6.93;4.47;;;;;;;;;;4994586;28;20046;-74
2021/08/18 13:22:46;;;;;;;8.82;5.18;;;;;;;;;;4991123;28;20049;-74
2021/08/18 13:25:12;;;;;;;6.03;4.60;;;;;;;;;;4990724;28;20046;-74
2021/08/18 13:27:38;;;;;;;6.32;3.88;;;;;;;;;;4994385;28;20073;-74
2021/08/18 13:30:09;;;;;;;9.57;4.45;;;;;;;;;;4993142;28;20050;-74
2021/08/18 13:32:36;;;;;;;7.70;4.07;;;;;;;;;;4992440;28;20050;-74
2021/08/18 13:35:02;;;;;;;5.57;3.65;;;;;;;;;;4994601;28;20096;-74
2021/08/18 13:37:29;;;;;;;4.72;3.85;;;;;;;;;;4992882;28;20464;-74
2021/08/18 13:39:55;;;;;;;7.93;4.47;;;;;;;;;;4993516;28;20038;-74
2021/08/18 13:42:21;;;;;;;9.57;4.85;;;;;;;;;;4993133;28;20042;-74
2021/08/18 13:44:47;;;;;;;6.53;4.40;;;;;;;;;;4991466;28;20457;-75
2021/08/18 13:47:13;;;;;;;5.35;4.20;;;;;;;;;;4992766;28;20052;-75
2021/08/18 13:49:39;;;;;;;5.22;4.47;;;;;;;;;;4993028;28;20049;-75
2021/08/18 13:52:06;;;;;;;7.13;4.50;;;;;;;;;;4993186;28;20108;-75
2021/08/18 13:54:32;;;;;;;6.80;4.18;;;;;;;;;;4991698;28;20468;-75
2021/08/18 13:56:58;;;;;;;5.75;4.07;;;;;;;;;;4993601;28;20073;-75
2021/08/18 13:59:24;;;;;;;6.45;4.35;;;;;;;;;;4993876;28;20072;-75
2021/08/18 14:01:50;;;;;;;6.35;4.20;;;;;;;;;;4994471;28;20046;-75
2021/08/18 14:04:16;;;;;;;6.65;4.47;;;;;;;;;;4992666;28;20053;-75
2021/08/18 14:06:44;;;;;;;8.30;4.38;;;;;;;;;;4992778;28;20073;-75
2021/08/18 14:09:10;;;;;;;7.75;4.57;;;;;;;;;;4992323;28;20121;-74
2021/08/18 14:11:36;;;;;;;7.68;4.63;;;;;;;;;;4993233;28;20057;-74
2021/08/18 14:14:05;;;;;;;5.85;4.15;;;;;;;;;;4992365;28;20069;-74
2021/08/18 14:16:31;;;;;;;5.90;4.45;;;;;;;;;;4992417;28;20042;-74
2021/08/18 14:18:58;;;;;;;5.85;4.10;;;;;;;;;;4994755;28;20173;-74
2021/08/18 14:21:24;;;;;;;7.38;4.32;;;;;;;;;;4994336;28;20042;-74
2021/08/18 14:23:50;;;;;;;5.55;3.92;;;;;;;;;;4993299;28;20069;-74
2021/08/18 14:26:16;;;;;;;4.95;4.28;;;;;;;;;;4992740;28;20042;-74
2021/08/18 14:28:42;;;;;;;7.22;3.80;;;;;;;;;;4993247;28;20042;-74
2021/08/18 14:31:08;;;;;;;8.38;4.25;;;;;;;;;;4992720;28;20061;-74
2021/08/18 14:33:35;;;;;;;6.10;4.20;;;;;;;;;;4991422;28;20405;-74
2021/08/18 14:36:01;;;;;;;5.93;3.78;;;;;;;;;;4994988;28;20038;-73
2021/08/18 14:38:27;;;;;;;5.57;4.22;;;;;;;;;;4995018;28;20042;-73
2021/08/18 14:40:53;;;;;;;5.90;4.07;;;;;;;;;;4995038;28;20038;-73
2021/08/18 14:43:20;;;;;;;7.25;4.25;;;;;;;;;;4995196;28;20093;-73